Time;durP1;ratioP1;P1;durP2;ratioP2;P2;SDS_P1;SDS_P2;PMS_P1;PMS_P2;Temp;Humidity;BMP_temperature;BMP_pressure;BME280_temperature;BME280_humidity;BME280_pressure;Samples;Min_cycle;Max_cycle;Signal;HPM_P1;HPM_P2
2021/06/18 00:00:58;;;;;;;0.30;0.30;;;;;;;22.89;44.55;98582.95;128685;1096;116373;-86
2021/06/18 00:03:25;;;;;;;0.40;0.40;;;;;;;22.86;44.28;98584.50;128744;1096;115905;-87
2021/06/18 00:05:51;;;;;;;0.40;0.40;;;;;;;22.83;44.40;98590.75;128657;1097;115294;-87
2021/06/18 00:08:19;;;;;;;0.30;0.30;;;;;;;22.83;44.54;98589.97;128683;1096;115704;-87
2021/06/18 00:10:54;;;;;;;0.40;0.40;;;;;;;22.81;44.20;98578.60;128858;1096;116253;-87
2021/06/18 00:13:21;;;;;;;0.20;0.20;;;;;;;22.79;44.28;98578.97;129594;1096;22526;-86
2021/06/18 00:15:47;;;;;;;0.40;0.40;;;;;;;22.77;44.36;98576.63;128708;1096;115587;-85
2021/06/18 00:18:14;;;;;;;0.33;0.33;;;;;;;22.75;44.33;98576.23;128672;1096;115758;-85
2021/06/18 00:20:40;;;;;;;0.30;0.30;;;;;;;22.75;44.55;98578.17;128688;1096;116098;-85
2021/06/18 00:23:07;;;;;;;0.33;0.33;;;;;;;22.73;44.36;98580.53;128688;1096;115623;-86
2021/06/18 00:25:33;;;;;;;0.20;0.20;;;;;;;22.71;44.52;98577.36;129510;1096;22599;-86
2021/06/18 00:27:59;;;;;;;0.43;0.43;;;;;;;22.69;44.81;98574.23;128735;1096;115911;-86
2021/06/18 00:30:26;;;;;;;0.20;0.20;;;;;;;22.65;44.80;98571.47;128774;1096;115595;-86
2021/06/18 00:32:52;;;;;;;0.40;0.40;;;;;;;22.62;44.78;98571.45;128685;1096;115905;-86
2021/06/18 00:35:18;;;;;;;0.38;0.38;;;;;;;22.57;45.14;98569.86;128679;1097;116067;-86
2021/06/18 00:37:45;;;;;;;0.40;0.40;;;;;;;22.54;45.12;98573.38;129516;1096;22479;-86
2021/06/18 00:40:11;;;;;;;0.30;0.30;;;;;;;22.52;45.33;98571.02;128695;1097;115418;-87
2021/06/18 00:42:38;;;;;;;0.20;0.20;;;;;;;22.50;45.25;98572.56;128715;1096;115234;-87
2021/06/18 00:45:05;;;;;;;0.40;0.40;;;;;;;22.48;45.43;98572.17;128670;1096;115708;-87
2021/06/18 00:47:31;;;;;;;0.30;0.30;;;;;;;22.46;45.24;98574.50;128655;1096;115888;-87
2021/06/18 00:49:57;;;;;;;0.33;0.33;;;;;;;22.45;45.33;98570.19;128707;1096;115884;-86
2021/06/18 00:52:24;;;;;;;0.33;0.33;;;;;;;22.42;45.44;98576.44;129536;1096;22613;-85
2021/06/18 00:54:50;;;;;;;0.35;0.35;;;;;;;22.39;45.44;98572.50;128680;1096;115457;-85
2021/06/18 00:57:17;;;;;;;0.40;0.40;;;;;;;22.37;45.71;98577.59;128707;1096;116178;-84
2021/06/18 00:59:43;;;;;;;0.30;0.30;;;;;;;22.34;45.57;98585.80;128719;1096;115404;-84
2021/06/18 01:02:09;;;;;;;0.20;0.20;;;;;;;22.33;45.63;98581.48;128732;1096;116376;-84
2021/06/18 01:04:37;;;;;;;0.30;0.30;;;;;;;22.30;45.99;98580.29;129541;1096;22525;-84
2021/06/18 01:07:17;;;;;;;0.38;0.38;;;;;;;22.27;45.94;98587.31;128727;1096;114968;-84
2021/06/18 01:09:48;;;;;;;0.30;0.30;;;;;;;22.23;45.81;98578.28;128745;1096;115655;-83
2021/06/18 01:12:19;;;;;;;0.38;0.38;;;;;;;22.21;46.25;98582.59;128671;1096;115423;-84
2021/06/18 01:15:00;;;;;;;0.38;0.38;;;;;;;22.17;45.97;98579.82;128779;1096;115970;-84
2021/06/18 01:18:04;;;;;;;0.40;0.40;;;;;;;22.15;46.21;98582.14;128728;1095;115526;-84
2021/06/18 01:20:55;;;;;;;0.48;0.48;;;;;;;22.13;46.27;98578.20;128702;1096;116239;-84
2021/06/18 01:23:30;;;;;;;0.48;0.48;;;;;;;22.12;46.18;98577.38;129036;1096;115924;-84
2021/06/18 01:26:04;;;;;;;0.40;0.40;;;;;;;22.10;46.35;98581.69;128715;1096;115730;-84
2021/06/18 01:28:43;;;;;;;0.35;0.35;;;;;;;22.08;46.43;98581.27;129890;1096;22594;-84
2021/06/18 01:31:14;;;;;;;0.30;0.30;;;;;;;22.04;46.32;98575.76;128738;1095;115195;-84
2021/06/18 01:33:43;;;;;;;0.33;0.33;;;;;;;22.02;46.45;98567.14;129029;1096;115621;-84
2021/06/18 01:36:13;;;;;;;0.30;0.30;;;;;;;21.98;46.59;98582.78;128659;1096;116141;-84
2021/06/18 01:38:46;;;;;;;0.30;0.30;;;;;;;21.96;46.55;98577.66;128698;1096;115425;-84
2021/06/18 01:41:19;;;;;;;0.40;0.40;;;;;;;21.93;46.72;98581.19;128672;1096;115868;-85
2021/06/18 01:43:47;;;;;;;0.30;0.30;;;;;;;21.93;46.62;98588.59;129568;1096;22844;-85
2021/06/18 01:46:17;;;;;;;0.40;0.40;;;;;;;21.89;46.67;98585.85;129551;1097;22566;-84
2021/06/18 01:48:49;;;;;;;0.40;0.40;;;;;;;21.88;46.83;98577.98;128741;1096;115816;-84
2021/06/18 01:51:17;;;;;;;0.20;0.20;;;;;;;21.85;47.16;98579.55;128697;1096;115705;-84
2021/06/18 01:53:45;;;;;;;0.20;0.20;;;;;;;21.83;46.98;98570.91;128659;1096;115390;-84
2021/06/18 01:56:16;;;;;;;0.23;0.23;;;;;;;21.82;47.04;98585.78;128701;1096;116131;-84
2021/06/18 01:58:46;;;;;;;0.30;0.30;;;;;;;21.79;47.07;98586.53;129579;1096;23060;-84
2021/06/18 02:01:14;;;;;;;0.20;0.20;;;;;;;21.75;47.19;98577.50;128757;1095;114872;-85
2021/06/18 02:03:45;;;;;;;0.30;0.30;;;;;;;21.73;47.61;98580.63;128757;1096;115607;-87
2021/06/18 02:06:14;;;;;;;0.30;0.30;;;;;;;21.70;47.39;98575.89;128775;1095;115102;-87
2021/06/18 02:08:45;;;;;;;0.38;0.38;;;;;;;21.69;47.35;98576.26;128725;1096;115595;-87
2021/06/18 02:11:13;;;;;;;0.40;0.40;;;;;;;21.67;47.46;98582.13;129025;1096;116085;-88
2021/06/18 02:13:42;;;;;;;0.20;0.20;;;;;;;21.65;47.60;98578.18;129515;1095;22536;-87
2021/06/18 02:16:10;;;;;;;0.48;0.48;;;;;;;21.62;47.66;98579.73;128714;1096;114879;-87
2021/06/18 02:18:37;;;;;;;0.40;0.40;;;;;;;21.59;47.76;98571.48;128751;1097;115554;-87
2021/06/18 02:21:05;;;;;;;0.40;0.40;;;;;;;21.58;47.72;98580.88;128749;1096;116337;-87
2021/06/18 02:23:33;;;;;;;0.40;0.40;;;;;;;21.58;47.76;98580.88;129016;1096;115953;-87
2021/06/18 02:26:05;;;;;;;0.30;0.30;;;;;;;21.56;47.80;98583.98;128719;1095;115632;-87
2021/06/18 02:28:31;;;;;;;0.30;0.30;;;;;;;21.53;47.86;98590.98;129569;1096;22520;-87
2021/06/18 02:30:58;;;;;;;0.30;0.30;;;;;;;21.52;47.83;98577.67;128721;1096;115104;-85
2021/06/18 02:33:24;;;;;;;0.40;0.40;;;;;;;21.50;48.08;98578.06;128701;1096;115446;-85
2021/06/18 02:35:50;;;;;;;0.48;0.48;;;;;;;21.48;48.08;98569.42;128757;1096;115261;-86
2021/06/18 02:38:16;;;;;;;0.40;0.40;;;;;;;21.47;48.16;98572.55;128759;1096;115880;-87
2021/06/18 02:40:46;;;;;;;0.30;0.30;;;;;;;21.44;48.23;98573.30;129587;1096;22566;-86
2021/06/18 02:43:13;;;;;;;0.40;0.40;;;;;;;21.41;48.23;98577.56;128684;1097;114896;-87
2021/06/18 02:45:39;;;;;;;0.23;0.23;;;;;;;21.38;48.29;98583.00;128759;1096;115708;-87
2021/06/18 02:48:13;;;;;;;0.40;0.40;;;;;;;21.35;48.29;98570.87;128763;1096;115767;-87
2021/06/18 02:51:02;;;;;;;0.38;0.38;;;;;;;21.32;48.36;98574.32;128740;1096;115799;-87
2021/06/18 02:53:45;;;;;;;0.40;0.40;;;;;;;21.30;48.51;98576.66;128686;1097;115492;-86
2021/06/18 02:56:22;;;;;;;0.33;0.33;;;;;;;21.27;48.54;98580.14;128710;1096;116415;-87
2021/06/18 02:59:02;;;;;;;0.40;0.40;;;;;;;21.25;48.57;98585.20;128997;1096;115855;-86
2021/06/18 03:01:35;;;;;;;0.40;0.40;;;;;;;21.24;48.57;98583.63;129592;1096;22560;-85
2021/06/18 03:04:02;;;;;;;0.23;0.23;;;;;;;21.23;48.49;98585.58;128770;1096;115456;-85
2021/06/18 03:06:34;;;;;;;0.40;0.40;;;;;;;21.22;48.68;98586.75;128725;1097;115442;-85
2021/06/18 03:09:04;;;;;;;0.30;0.30;;;;;;;21.22;48.51;98583.20;128687;1096;115823;-85
2021/06/18 03:11:39;;;;;;;0.40;0.40;;;;;;;21.19;48.60;98576.55;128744;1096;116007;-86
2021/06/18 03:14:10;;;;;;;0.30;0.30;;;;;;;21.17;48.84;98583.55;128690;1096;116009;-85
2021/06/18 03:16:41;;;;;;;0.30;0.30;;;;;;;21.16;49.19;98573.77;129556;1097;22517;-85
2021/06/18 03:19:11;;;;;;;0.35;0.35;;;;;;;21.15;48.94;98580.41;128721;1096;115633;-86
2021/06/18 03:21:37;;;;;;;0.43;0.43;;;;;;;21.13;49.17;98580.77;128723;1096;115502;-86
2021/06/18 03:24:09;;;;;;;0.20;0.20;;;;;;;21.12;49.06;98575.67;128749;1097;115920;-85
2021/06/18 03:26:38;;;;;;;0.30;0.30;;;;;;;21.11;49.15;98579.58;128703;1097;115525;-85
2021/06/18 03:29:07;;;;;;;;;;;;;;;21.09;49.20;98577.98;128716;1096;116020;-86
2021/06/18 03:31:35;;;;;;;0.30;0.30;;;;;;;21.09;49.33;98572.51;129533;1096;23021;-86
2021/06/18 03:34:03;;;;;;;0.50;0.50;;;;;;;21.10;49.46;98562.34;128722;1096;116515;-85
2021/06/18 03:36:31;;;;;;;0.50;0.50;;;;;;;21.09;49.30;98564.30;128691;1097;116201;-85
2021/06/18 03:38:58;;;;;;;0.40;0.40;;;;;;;21.09;49.36;98561.55;128719;1096;115968;-85
2021/06/18 03:41:25;;;;;;;0.30;0.30;;;;;;;21.10;49.55;98576.03;128687;1097;115726;-86
2021/06/18 03:43:52;;;;;;;0.40;0.40;;;;;;;21.09;49.65;98571.72;128698;1096;115346;-85
2021/06/18 03:46:19;;;;;;;0.20;0.20;;;;;;;21.09;49.65;98574.46;129581;1097;22534;-85
2021/06/18 03:48:46;;;;;;;0.20;0.20;;;;;;;21.08;49.78;98579.16;128739;1097;116016;-85
2021/06/18 03:51:12;;;;;;;0.30;0.30;;;;;;;21.09;49.77;98577.20;128723;1096;115199;-85
2021/06/18 03:53:40;;;;;;;0.30;0.30;;;;;;;21.09;49.86;98572.51;128684;1096;115545;-86
2021/06/18 03:56:08;;;;;;;0.30;0.30;;;;;;;21.10;49.93;98573.29;128648;1097;115407;-88
2021/06/18 03:58:40;;;;;;;0.40;0.40;;;;;;;21.11;49.96;98577.63;129573;1096;22556;-87
2021/06/18 04:01:10;;;;;;;;;;;;;;;21.13;50.77;98582.72;128678;1096;114625;-86
2021/06/18 04:03:38;;;;;;;0.30;0.30;;;;;;;21.15;49.81;98585.88;128831;1096;101491;-86
2021/06/18 04:06:30;;;;;;;0.30;0.30;;;;;;;21.17;49.84;98587.06;128778;1096;115078;-87
2021/06/18 04:09:27;;;;;;;0.40;0.40;;;;;;;21.19;49.86;98584.75;128575;1095;115122;-87
2021/06/18 04:11:55;;;;;;;0.40;0.40;;;;;;;21.23;49.92;98588.32;128588;1096;116053;-86
2021/06/18 04:14:21;;;;;;;0.40;0.40;;;;;;;21.27;49.94;98593.84;128718;1096;115721;-86
2021/06/18 04:16:49;;;;;;;0.30;0.30;;;;;;;21.29;50.13;98595.02;129464;1097;115133;-86
2021/06/18 04:19:15;;;;;;;0.30;0.30;;;;;;;21.32;50.16;98591.56;129022;1096;120012;-86
2021/06/18 04:21:45;;;;;;;0.40;0.40;;;;;;;21.37;50.02;98593.17;128673;1097;115363;-86
2021/06/18 04:24:15;;;;;;;0.47;0.47;;;;;;;21.41;50.11;98594.00;128711;1097;115661;-86
2021/06/18 04:26:43;;;;;;;0.30;0.30;;;;;;;21.45;50.00;98585.82;128681;1097;115448;-86
2021/06/18 04:29:10;;;;;;;0.40;0.40;;;;;;;21.48;50.06;98579.59;128736;1095;115607;-86
2021/06/18 04:31:37;;;;;;;0.20;0.20;;;;;;;21.53;49.96;98580.03;129546;1096;22529;-86
2021/06/18 04:34:07;;;;;;;0.30;0.30;;;;;;;21.59;49.98;98587.92;128711;1096;115570;-86
2021/06/18 04:36:36;;;;;;;0.30;0.30;;;;;;;21.64;49.93;98587.58;128666;1097;115095;-87
2021/06/18 04:39:23;;;;;;;0.45;0.45;;;;;;;21.70;50.07;98591.55;128805;1095;115181;-87
2021/06/18 04:41:49;;;;;;;0.40;0.40;;;;;;;21.74;49.84;98584.94;128685;1096;115943;-86
2021/06/18 04:44:16;;;;;;;0.30;0.30;;;;;;;21.81;49.73;98586.93;128405;1100;116010;-86
2021/06/18 04:46:44;;;;;;;0.70;0.70;;;;;;;21.86;49.85;98583.08;129558;1096;23017;-86
2021/06/18 04:49:11;;;;;;;0.40;0.40;;;;;;;21.91;49.64;98588.20;128808;1096;115883;-86
2021/06/18 04:51:37;;;;;;;0.30;0.30;;;;;;;21.97;49.52;98584.73;128720;1097;116221;-86
2021/06/18 04:54:03;;;;;;;0.30;0.30;;;;;;;22.04;49.70;98589.47;128676;1097;115825;-86
2021/06/18 04:56:29;;;;;;;0.30;0.30;;;;;;;22.10;49.45;98590.70;128755;1097;116409;-86
2021/06/18 04:58:59;;;;;;;0.60;0.60;;;;;;;22.17;49.50;98593.53;128715;1097;116183;-86
2021/06/18 05:01:30;;;;;;;0.40;0.40;;;;;;;22.22;49.22;98595.13;129544;1097;22534;-86
2021/06/18 05:03:56;;;;;;;0.43;0.43;;;;;;;22.30;49.12;98599.49;128691;1097;115937;-86
2021/06/18 05:06:23;;;;;;;0.60;0.60;;;;;;;22.37;49.23;98604.25;128715;1095;115392;-86
2021/06/18 05:08:50;;;;;;;0.40;0.40;;;;;;;22.41;49.10;98602.31;128704;1096;116299;-86
2021/06/18 05:11:16;;;;;;;0.40;0.40;;;;;;;22.47;49.27;98609.00;128128;1097;115731;-87
2021/06/18 05:13:53;;;;;;;0.33;0.33;;;;;;;22.53;49.18;98607.48;129520;1097;22513;-87
2021/06/18 05:19:13;;;;;;;0.48;0.48;;;;;;;22.68;48.55;98608.35;129036;1095;115468;-87
2021/06/18 05:21:39;;;;;;;0.40;0.40;;;;;;;22.73;48.57;98611.51;128731;1096;115516;-84
2021/06/18 05:24:06;;;;;;;0.40;0.40;;;;;;;22.81;48.57;98603.31;128816;1096;116112;-87
2021/06/18 05:26:35;;;;;;;0.50;0.50;;;;;;;22.88;48.30;98615.12;128781;1096;115648;-85
2021/06/18 05:29:50;;;;;;;0.30;0.30;;;;;;;22.95;48.57;98611.63;128743;1095;114324;-91
2021/06/18 06:25:54;;;;;;;0.50;0.50;;;;;;;24.82;45.63;98622.41;128850;1096;116925;-86
2021/06/18 06:28:20;;;;;;;0.50;0.50;;;;;;;24.90;45.53;98625.92;129568;1097;23434;-86
2021/06/18 06:30:46;;;;;;;0.50;0.50;;;;;;;24.97;45.52;98623.15;128680;1096;115072;-85
2021/06/18 06:33:13;;;;;;;0.50;0.50;;;;;;;25.04;45.34;98627.85;128750;1097;115723;-85
2021/06/18 06:35:39;;;;;;;0.70;0.70;;;;;;;25.08;45.22;98621.14;128690;1097;115865;-85
2021/06/18 06:38:05;;;;;;;0.50;0.50;;;;;;;25.16;45.34;98627.44;128713;1096;116049;-86
2021/06/18 06:40:31;;;;;;;0.60;0.60;;;;;;;25.25;45.21;98624.23;129612;1096;22519;-87
2021/06/18 06:42:57;;;;;;;0.50;0.50;;;;;;;25.30;45.12;98630.10;128788;1097;115683;-86
2021/06/18 06:45:24;;;;;;;0.50;0.50;;;;;;;25.38;45.21;98620.61;128797;1096;115635;-86
2021/06/18 06:47:53;;;;;;;0.60;0.60;;;;;;;25.45;45.22;98628.06;128779;1096;115528;-85
2021/06/18 06:50:19;;;;;;;0.40;0.40;;;;;;;25.53;45.12;98634.32;128739;1096;115983;-85
2021/06/18 06:52:45;;;;;;;0.50;0.50;;;;;;;25.58;45.02;98629.16;129540;1096;23046;-86
2021/06/18 06:55:21;;;;;;;0.53;0.53;;;;;;;25.63;44.82;98631.50;128709;1096;115352;-86
2021/06/18 06:57:47;;;;;;;0.43;0.43;;;;;;;25.71;44.80;98630.27;128762;1096;116400;-86
2021/06/18 07:00:13;;;;;;;0.38;0.38;;;;;;;25.79;44.71;98638.53;128691;1096;115789;-86
2021/06/18 07:02:39;;;;;;;0.50;0.50;;;;;;;25.87;44.53;98640.83;128638;1097;115265;-87
2021/06/18 07:05:06;;;;;;;0.60;0.60;;;;;;;25.94;44.54;98640.00;128736;1096;115845;-86
2021/06/18 07:07:33;;;;;;;0.65;0.65;;;;;;;26.03;44.08;98637.55;129534;1095;22608;-87
2021/06/18 07:09:59;;;;;;;0.60;0.60;;;;;;;26.11;44.28;98638.28;128679;1096;115055;-90
2021/06/18 07:12:25;;;;;;;0.60;0.60;;;;;;;26.20;43.78;98638.59;128704;1096;115669;-88
2021/06/18 07:15:02;;;;;;;0.50;0.50;;;;;;;26.29;43.68;98638.11;128675;1096;114252;-88
2021/06/18 07:17:36;;;;;;;0.55;0.55;;;;;;;26.38;43.91;98644.75;128802;1096;115148;-88
2021/06/18 07:20:04;;;;;;;0.55;0.55;;;;;;;26.47;43.85;98638.77;128734;1096;115573;-88
2021/06/18 07:22:36;;;;;;;0.60;0.60;;;;;;;26.54;43.83;98633.19;129535;1096;22653;-88
2021/06/18 07:25:07;;;;;;;0.50;0.50;;;;;;;26.64;43.65;98629.51;128941;1095;115065;-88
2021/06/18 07:27:34;;;;;;;0.63;0.63;;;;;;;26.75;43.79;98626.64;128753;1096;115272;-88
2021/06/18 07:30:01;;;;;;;0.53;0.53;;;;;;;26.86;43.43;98623.77;128993;1096;115881;-88
2021/06/18 07:32:27;;;;;;;0.50;0.50;;;;;;;26.96;42.91;98625.63;128766;1096;115649;-88
2021/06/18 07:34:54;;;;;;;0.50;0.50;;;;;;;27.04;43.20;98632.64;128725;1096;115533;-88
2021/06/18 07:37:21;;;;;;;0.60;0.60;;;;;;;27.14;42.73;98631.73;129567;1096;22540;-88
2021/06/18 07:39:48;;;;;;;0.68;0.68;;;;;;;27.24;41.89;98629.27;128796;1096;115069;-88
2021/06/18 07:42:15;;;;;;;0.50;0.50;;;;;;;27.31;41.83;98641.02;128786;1096;115283;-88
2021/06/18 07:44:41;;;;;;;0.50;0.50;;;;;;;27.42;41.50;98632.56;128753;1096;115350;-88
2021/06/18 07:47:09;;;;;;;0.50;0.50;;;;;;;27.52;40.97;98626.11;128721;1096;115296;-88
2021/06/18 07:49:36;;;;;;;0.65;0.65;;;;;;;27.61;40.93;98626.36;129676;1096;22517;-88
2021/06/18 07:52:04;;;;;;;0.68;0.68;;;;;;;27.71;40.85;98626.64;128768;1096;114426;-88
2021/06/18 07:54:31;;;;;;;0.70;0.70;;;;;;;27.79;40.83;98631.67;128897;1096;115680;-88
2021/06/18 07:56:57;;;;;;;0.48;0.48;;;;;;;27.91;40.05;98635.06;128782;1095;115488;-88
2021/06/18 07:59:23;;;;;;;0.58;0.58;;;;;;;27.96;40.07;98629.82;128748;1097;115518;-88
2021/06/18 08:01:50;;;;;;;0.50;0.50;;;;;;;28.05;40.36;98627.29;128804;1095;115571;-88
2021/06/18 08:04:16;;;;;;;0.50;0.50;;;;;;;28.10;38.76;98626.83;129599;1096;22570;-88
2021/06/18 08:06:43;;;;;;;0.70;0.70;;;;;;;28.15;38.88;98625.56;128790;1096;115498;-89
2021/06/18 08:09:09;;;;;;;0.70;0.70;;;;;;;28.23;38.83;98627.00;128699;1097;115907;-88
2021/06/18 08:11:38;;;;;;;0.70;0.70;;;;;;;28.27;38.32;98630.49;128765;1097;115133;-89
2021/06/18 08:14:08;;;;;;;0.78;0.78;;;;;;;28.31;37.56;98620.13;129054;1096;115778;-88
2021/06/18 08:16:35;;;;;;;0.70;0.70;;;;;;;28.33;37.88;98628.79;129580;1096;22978;-89
2021/06/18 08:19:22;;;;;;;0.70;0.70;;;;;;;28.37;36.49;98624.03;129059;1096;114800;-89
2021/06/18 08:21:48;;;;;;;0.60;0.60;;;;;;;28.41;37.16;98631.47;128734;1095;115768;-89
2021/06/18 08:24:14;;;;;;;0.65;0.65;;;;;;;28.38;36.20;98614.50;128758;1096;115710;-89
2021/06/18 08:26:41;;;;;;;0.78;0.78;;;;;;;28.41;36.45;98625.92;128729;1096;115196;-89
2021/06/18 08:29:07;;;;;;;;;;;;;;;28.35;35.34;98620.85;128767;1096;115170;-89
2021/06/18 08:31:33;;;;;;;0.63;0.63;;;;;;;28.37;36.01;98625.98;129685;1096;22549;-88
2021/06/18 08:34:00;;;;;;;0.65;0.65;;;;;;;28.44;36.03;98616.78;128716;1096;115475;-89
2021/06/18 08:36:26;;;;;;;0.80;0.80;;;;;;;28.45;35.17;98616.34;128733;1096;116102;-89
2021/06/18 08:38:53;;;;;;;0.55;0.55;;;;;;;28.53;35.50;98623.34;128807;1095;115665;-89
2021/06/18 08:41:23;;;;;;;0.63;0.63;;;;;;;28.56;35.10;98611.39;128743;1096;115557;-89
2021/06/18 08:43:50;;;;;;;0.70;0.70;;;;;;;28.62;35.47;98612.48;128728;1096;115143;-89
2021/06/18 08:46:16;;;;;;;0.70;0.70;;;;;;;28.68;35.31;98614.75;129635;1096;22536;-89
2021/06/18 08:48:42;;;;;;;0.65;0.65;;;;;;;28.80;35.74;98612.11;128759;1095;115655;-89
2021/06/18 08:51:08;;;;;;;0.70;0.70;;;;;;;28.94;35.47;98610.28;128775;1096;115621;-89
2021/06/18 08:53:41;;;;;;;0.55;0.55;;;;;;;29.08;35.69;98610.00;128693;1097;115559;-89
2021/06/18 08:56:08;;;;;;;0.80;0.80;;;;;;;29.19;35.24;98612.56;128784;1096;115770;-89
2021/06/18 08:58:35;;;;;;;0.70;0.70;;;;;;;29.21;34.22;98621.25;129569;1095;22545;-89
2021/06/18 09:01:04;;;;;;;0.60;0.60;;;;;;;29.22;34.65;98612.48;128826;1096;115375;-89
2021/06/18 09:03:47;;;;;;;0.50;0.50;;;;;;;29.19;34.67;98616.11;128772;1095;115401;-89
2021/06/18 09:06:19;;;;;;;0.78;0.78;;;;;;;29.19;34.13;98620.88;128788;1096;115112;-89
2021/06/18 09:08:45;;;;;;;0.60;0.60;;;;;;;29.23;34.92;98616.81;128771;1096;115285;-89
2021/06/18 09:11:41;;;;;;;0.60;0.60;;;;;;;29.32;34.43;98617.03;128698;1097;115311;-89
2021/06/18 09:14:30;;;;;;;0.80;0.80;;;;;;;29.46;35.00;98615.92;128763;1096;115452;-90
2021/06/18 09:17:19;;;;;;;0.75;0.75;;;;;;;29.64;35.31;98612.78;128822;1096;115714;-89
2021/06/18 09:19:53;;;;;;;0.80;0.80;;;;;;;29.76;34.60;98606.55;129545;1096;115569;-89
2021/06/18 09:22:23;;;;;;;0.68;0.68;;;;;;;29.80;33.44;98601.69;129242;1096;120658;-89
2021/06/18 09:25:21;;;;;;;0.68;0.68;;;;;;;29.84;33.72;98609.94;128795;1096;116080;-89
2021/06/18 09:27:50;;;;;;;0.70;0.70;;;;;;;29.85;34.04;98603.16;128996;1096;116109;-89
2021/06/18 09:30:31;;;;;;;0.88;0.88;;;;;;;29.88;32.40;98593.97;128793;1096;116881;-89
2021/06/18 09:33:12;;;;;;;0.65;0.65;;;;;;;29.93;32.78;98595.44;128869;1096;114455;-89
2021/06/18 09:36:08;;;;;;;0.80;0.80;;;;;;;29.97;33.41;98593.35;128792;1096;115116;-89
2021/06/18 09:38:53;;;;;;;0.80;0.80;;;;;;;29.97;32.40;98596.13;128822;1095;115003;-89
2021/06/18 09:41:39;;;;;;;0.80;0.80;;;;;;;29.78;31.40;98595.00;128832;1096;114518;-89
2021/06/18 09:44:21;;;;;;;0.60;0.60;;;;;;;29.72;32.05;98605.07;128767;1096;115580;-89
2021/06/18 09:46:51;;;;;;;0.60;0.60;;;;;;;29.75;32.20;98593.08;129667;1096;22966;-89
2021/06/18 09:49:29;;;;;;;0.63;0.63;;;;;;;29.85;32.32;98586.50;129634;1096;22572;-89
2021/06/18 09:52:16;;;;;;;0.70;0.70;;;;;;;30.07;32.82;98590.31;128899;1096;115401;-89
2021/06/18 09:54:46;;;;;;;0.60;0.60;;;;;;;30.31;32.77;98587.36;128731;1095;115442;-89
2021/06/18 09:57:13;;;;;;;;;;;;;;;30.41;31.49;98591.05;128748;1097;115626;-89
2021/06/18 10:00:04;;;;;;;0.70;0.70;;;;;;;30.46;31.97;98584.98;128897;1095;101414;-89
2021/06/18 10:03:09;;;;;;;0.60;0.60;;;;;;;30.57;31.79;98593.79;128710;1096;115583;-89
2021/06/18 10:05:54;;;;;;;0.70;0.70;;;;;;;30.64;30.86;98587.27;128789;1096;116334;-89
2021/06/18 10:08:30;;;;;;;0.70;0.70;;;;;;;30.76;30.96;98578.21;128779;1097;114006;-90
2021/06/18 10:11:17;;;;;;;0.80;0.80;;;;;;;30.91;28.77;98576.58;128766;1096;115186;-89
2021/06/18 10:13:47;;;;;;;0.70;0.70;;;;;;;30.99;29.43;98580.71;129580;1097;22566;-89
2021/06/18 10:16:17;;;;;;;0.60;0.60;;;;;;;31.04;28.83;98569.03;129595;1096;22525;-89
2021/06/18 10:19:04;;;;;;;0.70;0.70;;;;;;;31.09;29.26;98569.70;128707;1096;115299;-89
2021/06/18 10:21:36;;;;;;;0.70;0.70;;;;;;;31.10;28.16;98572.06;128757;1096;115374;-89
2021/06/18 10:24:04;;;;;;;0.60;0.60;;;;;;;31.03;29.08;98563.92;128708;1096;114995;-89
2021/06/18 10:26:31;;;;;;;0.70;0.70;;;;;;;31.01;29.25;98569.94;128726;1097;115800;-89
2021/06/18 10:29:01;;;;;;;0.68;0.68;;;;;;;31.06;29.74;98557.48;128766;1096;115892;-89
2021/06/18 10:31:31;;;;;;;0.80;0.80;;;;;;;31.18;29.43;98569.84;129562;1096;22537;-90
2021/06/18 10:34:06;;;;;;;0.70;0.70;;;;;;;31.38;29.65;98567.66;128755;1096;115023;-88
2021/06/18 10:36:34;;;;;;;0.73;0.73;;;;;;;31.65;28.96;98561.63;128741;1096;115437;-88
2021/06/18 10:39:14;;;;;;;0.75;0.75;;;;;;;31.90;28.78;98566.41;128719;1096;115422;-88
2021/06/18 10:41:59;;;;;;;0.80;0.80;;;;;;;32.19;29.27;98566.23;128723;1096;115287;-88
2021/06/18 10:44:38;;;;;;;0.70;0.70;;;;;;;32.53;28.92;98566.67;128790;1096;115075;-88
2021/06/18 10:47:29;;;;;;;0.75;0.75;;;;;;;32.63;27.42;98566.30;128673;1096;116231;-89
2021/06/18 10:49:57;;;;;;;0.80;0.80;;;;;;;32.46;26.11;98556.55;128747;1096;114215;-90
2021/06/18 10:52:34;;;;;;;0.90;0.90;;;;;;;32.58;27.33;98555.73;129584;1096;22533;-89
2021/06/18 10:55:02;;;;;;;0.80;0.80;;;;;;;32.79;26.18;98556.95;128814;1096;115097;-89
2021/06/18 10:57:52;;;;;;;0.70;0.70;;;;;;;33.06;26.95;98550.02;128536;1096;114856;-89
2021/06/18 11:00:30;;;;;;;0.90;0.90;;;;;;;33.33;26.86;98552.92;128645;1096;115020;-90
2021/06/18 11:03:19;;;;;;;0.88;0.88;;;;;;;33.51;26.08;98548.66;128869;1096;114856;-90
2021/06/18 11:06:08;;;;;;;0.73;0.73;;;;;;;33.65;25.89;98542.51;128705;1096;114210;-90
2021/06/18 11:08:49;;;;;;;0.70;0.70;;;;;;;33.58;24.04;98548.38;128913;1096;115584;-89
2021/06/18 11:11:46;;;;;;;0.90;0.90;;;;;;;33.44;24.73;98549.69;128732;1095;114858;-89
2021/06/18 11:14:37;;;;;;;0.90;0.90;;;;;;;33.40;25.25;98554.64;128782;1096;115356;-90
2021/06/18 11:17:24;;;;;;;0.60;0.60;;;;;;;33.47;25.04;98551.59;128717;1096;115820;-89
2021/06/18 11:19:51;;;;;;;0.77;0.77;;;;;;;33.45;24.01;98546.48;128909;1095;115247;-89
2021/06/18 11:22:47;;;;;;;0.70;0.70;;;;;;;33.41;24.47;98550.63;129571;1097;22617;-89
2021/06/18 11:25:51;;;;;;;0.80;0.80;;;;;;;33.32;24.91;98542.20;129412;1096;114507;-89
2021/06/18 11:28:34;;;;;;;0.85;0.85;;;;;;;33.20;25.54;98541.84;129792;1095;23371;-89
2021/06/18 11:31:07;;;;;;;0.80;0.80;;;;;;;33.24;25.22;98538.91;128643;1096;114405;-89
2021/06/18 11:33:39;;;;;;;0.80;0.80;;;;;;;33.18;24.61;98538.75;128697;1095;115392;-89
2021/06/18 11:36:33;;;;;;;0.90;0.90;;;;;;;33.11;24.96;98541.81;128822;1095;114765;-89
2021/06/18 11:39:41;;;;;;;0.80;0.80;;;;;;;33.26;25.71;98544.05;128706;1094;114247;-89
2021/06/18 11:42:48;;;;;;;0.80;0.80;;;;;;;33.45;25.13;98535.31;128554;1096;114992;-89
2021/06/18 11:45:37;;;;;;;0.90;0.90;;;;;;;33.65;24.88;98539.72;128717;1096;114056;-90
2021/06/18 11:48:31;;;;;;;1.00;1.00;;;;;;;33.86;25.54;98538.04;128798;1096;114952;-89
2021/06/18 11:51:02;;;;;;;0.70;0.70;;;;;;;34.08;25.08;98533.14;128764;1096;114428;-90
2021/06/18 11:53:38;;;;;;;0.90;0.90;;;;;;;34.30;24.86;98529.41;128765;1096;115165;-90
2021/06/18 11:56:24;;;;;;;0.80;0.80;;;;;;;34.49;23.28;98524.61;128659;1097;114443;-90
2021/06/18 11:58:54;;;;;;;0.80;0.80;;;;;;;34.55;23.83;98534.70;128790;1096;116466;-90
2021/06/18 12:01:21;;;;;;;0.53;0.53;;;;;;;34.52;23.27;98540.45;129554;1096;22591;-89
2021/06/18 12:04:10;;;;;;;0.90;0.90;;;;;;;34.62;23.43;98536.38;128754;1096;115012;-89
2021/06/18 12:06:56;;;;;;;0.78;0.78;;;;;;;34.75;23.22;98537.00;128681;1096;114619;-90
2021/06/18 12:09:51;;;;;;;0.80;0.80;;;;;;;34.94;23.89;98534.94;128698;1096;115629;-89
2021/06/18 12:12:19;;;;;;;0.90;0.90;;;;;;;35.12;23.03;98534.88;128778;1095;116395;-89
2021/06/18 12:14:54;;;;;;;0.70;0.70;;;;;;;35.18;22.62;98525.87;128736;1096;115572;-89
2021/06/18 12:17:21;;;;;;;0.63;0.63;;;;;;;35.23;22.79;98525.98;128735;1096;115022;-89
2021/06/18 12:19:49;;;;;;;0.70;0.70;;;;;;;35.39;23.01;98519.23;129559;1096;22625;-89
2021/06/18 12:22:44;;;;;;;0.70;0.70;;;;;;;35.54;22.16;98524.94;129596;1096;22533;-89
2021/06/18 12:25:11;;;;;;;0.90;0.90;;;;;;;35.74;21.92;98535.56;128790;1096;115225;-89
2021/06/18 12:27:41;;;;;;;0.70;0.70;;;;;;;35.89;21.55;98527.98;128738;1096;115819;-89
2021/06/18 12:30:15;;;;;;;0.90;0.90;;;;;;;36.02;21.06;98525.73;128771;1096;115465;-90
2021/06/18 12:33:07;;;;;;;0.60;0.60;;;;;;;36.20;20.18;98521.22;128642;1097;115656;-90
2021/06/18 12:35:43;;;;;;;0.83;0.83;;;;;;;36.44;20.76;98516.35;128798;1096;114106;-90
2021/06/18 12:38:14;;;;;;;0.90;0.90;;;;;;;36.46;20.89;98515.89;128769;1096;115273;-90
2021/06/18 12:40:51;;;;;;;0.80;0.80;;;;;;;36.67;20.74;98513.95;129646;1095;23423;-90